sensor_id;sensor_type;location;lat;lon;timestamp;P1;durP1;ratioP1;P2;durP2;ratioP2
18383;SDS011;9318;48.644;9.456;2024-03-02T00:01:15;1.57;;;1.57;;
18383;SDS011;9318;48.644;9.456;2024-03-02T00:03:42;1.60;;;1.60;;
18383;SDS011;9318;48.644;9.456;2024-03-02T00:06:09;1.50;;;1.50;;
18383;SDS011;9318;48.644;9.456;2024-03-02T00:08:37;1.40;;;1.40;;
18383;SDS011;9318;48.644;9.456;2024-03-02T00:11:04;1.30;;;1.30;;
18383;SDS011;9318;48.644;9.456;2024-03-02T00:13:30;1.50;;;1.50;;
18383;SDS011;9318;48.644;9.456;2024-03-02T00:15:58;1.30;;;1.30;;
18383;SDS011;9318;48.644;9.456;2024-03-02T00:18:27;1.60;;;1.60;;
18383;SDS011;9318;48.644;9.456;2024-03-02T00:20:57;1.63;;;1.63;;
18383;SDS011;9318;48.644;9.456;2024-03-02T00:23:26;1.53;;;1.53;;
18383;SDS011;9318;48.644;9.456;2024-03-02T00:25:55;1.70;;;1.70;;
18383;SDS011;9318;48.644;9.456;2024-03-02T00:28:23;1.60;;;1.60;;
18383;SDS011;9318;48.644;9.456;2024-03-02T00:30:51;1.60;;;1.60;;
18383;SDS011;9318;48.644;9.456;2024-03-02T00:33:22;1.60;;;1.60;;
18383;SDS011;9318;48.644;9.456;2024-03-02T00:35:51;1.50;;;1.50;;
18383;SDS011;9318;48.644;9.456;2024-03-02T00:38:18;1.80;;;1.80;;
18383;SDS011;9318;48.644;9.456;2024-03-02T00:40:45;1.60;;;1.60;;
18383;SDS011;9318;48.644;9.456;2024-03-02T00:43:20;1.80;;;1.80;;
18383;SDS011;9318;48.644;9.456;2024-03-02T00:46:12;1.60;;;1.60;;
18383;SDS011;9318;48.644;9.456;2024-03-02T00:48:41;1.60;;;1.60;;
18383;SDS011;9318;48.644;9.456;2024-03-02T00:51:15;1.60;;;1.60;;
18383;SDS011;9318;48.644;9.456;2024-03-02T00:53:42;1.53;;;1.53;;
18383;SDS011;9318;48.644;9.456;2024-03-02T00:56:10;1.73;;;1.73;;
18383;SDS011;9318;48.644;9.456;2024-03-02T00:58:37;1.60;;;1.60;;
18383;SDS011;9318;48.644;9.456;2024-03-02T01:01:05;1.70;;;1.70;;
18383;SDS011;9318;48.644;9.456;2024-03-02T01:03:32;1.50;;;1.50;;
18383;SDS011;9318;48.644;9.456;2024-03-02T01:05:59;1.60;;;1.60;;
18383;SDS011;9318;48.644;9.456;2024-03-02T01:08:27;1.90;;;1.90;;
18383;SDS011;9318;48.644;9.456;2024-03-02T01:10:54;1.70;;;1.70;;
18383;SDS011;9318;48.644;9.456;2024-03-02T01:13:21;1.80;;;1.80;;
18383;SDS011;9318;48.644;9.456;2024-03-02T01:15:49;1.60;;;1.60;;
18383;SDS011;9318;48.644;9.456;2024-03-02T01:18:16;1.50;;;1.50;;
18383;SDS011;9318;48.644;9.456;2024-03-02T01:20:43;1.60;;;1.60;;
18383;SDS011;9318;48.644;9.456;2024-03-02T01:23:10;1.60;;;1.60;;
18383;SDS011;9318;48.644;9.456;2024-03-02T01:25:38;1.60;;;1.60;;
18383;SDS011;9318;48.644;9.456;2024-03-02T01:28:05;1.60;;;1.60;;
18383;SDS011;9318;48.644;9.456;2024-03-02T01:30:32;1.60;;;1.60;;
18383;SDS011;9318;48.644;9.456;2024-03-02T01:32:58;1.70;;;1.70;;
18383;SDS011;9318;48.644;9.456;2024-03-02T01:35:27;1.60;;;1.60;;
18383;SDS011;9318;48.644;9.456;2024-03-02T01:37:53;1.50;;;1.50;;
18383;SDS011;9318;48.644;9.456;2024-03-02T01:40:20;1.60;;;1.60;;
18383;SDS011;9318;48.644;9.456;2024-03-02T01:42:52;1.60;;;1.60;;
18383;SDS011;9318;48.644;9.456;2024-03-02T01:45:19;1.70;;;1.70;;
18383;SDS011;9318;48.644;9.456;2024-03-02T01:47:47;1.70;;;1.70;;
18383;SDS011;9318;48.644;9.456;2024-03-02T01:50:14;1.90;;;1.90;;
18383;SDS011;9318;48.644;9.456;2024-03-02T01:52:41;1.60;;;1.60;;
18383;SDS011;9318;48.644;9.456;2024-03-02T01:55:09;1.90;;;1.90;;
18383;SDS011;9318;48.644;9.456;2024-03-02T01:57:36;1.70;;;1.70;;
18383;SDS011;9318;48.644;9.456;2024-03-02T02:00:05;1.53;;;1.53;;
18383;SDS011;9318;48.644;9.456;2024-03-02T02:02:34;1.50;;;1.50;;
18383;SDS011;9318;48.644;9.456;2024-03-02T02:05:01;1.70;;;1.70;;
18383;SDS011;9318;48.644;9.456;2024-03-02T02:09:55;1.70;;;1.70;;
18383;SDS011;9318;48.644;9.456;2024-03-02T02:12:22;1.60;;;1.60;;
18383;SDS011;9318;48.644;9.456;2024-03-02T02:14:49;1.60;;;1.60;;
18383;SDS011;9318;48.644;9.456;2024-03-02T02:17:17;1.60;;;1.60;;
18383;SDS011;9318;48.644;9.456;2024-03-02T02:19:44;1.50;;;1.50;;
18383;SDS011;9318;48.644;9.456;2024-03-02T02:22:12;1.60;;;1.60;;
18383;SDS011;9318;48.644;9.456;2024-03-02T02:24:39;1.50;;;1.50;;
18383;SDS011;9318;48.644;9.456;2024-03-02T02:27:07;1.87;;;1.87;;
18383;SDS011;9318;48.644;9.456;2024-03-02T02:29:34;1.70;;;1.70;;
18383;SDS011;9318;48.644;9.456;2024-03-02T02:32:01;1.80;;;1.80;;
18383;SDS011;9318;48.644;9.456;2024-03-02T02:34:28;1.60;;;1.60;;
18383;SDS011;9318;48.644;9.456;2024-03-02T02:36:55;1.50;;;1.50;;
18383;SDS011;9318;48.644;9.456;2024-03-02T02:39:23;1.83;;;1.83;;
18383;SDS011;9318;48.644;9.456;2024-03-02T02:41:49;1.50;;;1.50;;
18383;SDS011;9318;48.644;9.456;2024-03-02T02:44:15;1.80;;;1.80;;
18383;SDS011;9318;48.644;9.456;2024-03-02T02:46:42;1.50;;;1.50;;
18383;SDS011;9318;48.644;9.456;2024-03-02T02:49:09;1.70;;;1.70;;
18383;SDS011;9318;48.644;9.456;2024-03-02T02:51:36;1.90;;;1.90;;
18383;SDS011;9318;48.644;9.456;2024-03-02T02:54:02;1.70;;;1.70;;
18383;SDS011;9318;48.644;9.456;2024-03-02T02:56:30;1.50;;;1.50;;
18383;SDS011;9318;48.644;9.456;2024-03-02T02:58:57;1.60;;;1.60;;
18383;SDS011;9318;48.644;9.456;2024-03-02T03:01:24;1.50;;;1.50;;
18383;SDS011;9318;48.644;9.456;2024-03-02T03:03:52;1.53;;;1.53;;
18383;SDS011;9318;48.644;9.456;2024-03-02T03:06:18;1.80;;;1.80;;
18383;SDS011;9318;48.644;9.456;2024-03-02T03:08:45;1.53;;;1.53;;
18383;SDS011;9318;48.644;9.456;2024-03-02T03:11:12;1.60;;;1.60;;
18383;SDS011;9318;48.644;9.456;2024-03-02T03:13:40;1.77;;;1.77;;
18383;SDS011;9318;48.644;9.456;2024-03-02T03:16:07;1.60;;;1.60;;
18383;SDS011;9318;48.644;9.456;2024-03-02T03:18:34;1.80;;;1.80;;
18383;SDS011;9318;48.644;9.456;2024-03-02T03:21:01;1.57;;;1.57;;
18383;SDS011;9318;48.644;9.456;2024-03-02T03:23:28;1.60;;;1.60;;
18383;SDS011;9318;48.644;9.456;2024-03-02T03:25:55;1.80;;;1.80;;
18383;SDS011;9318;48.644;9.456;2024-03-02T03:28:21;1.50;;;1.50;;
18383;SDS011;9318;48.644;9.456;2024-03-02T03:30:48;1.70;;;1.70;;
18383;SDS011;9318;48.644;9.456;2024-03-02T03:33:15;1.70;;;1.70;;
18383;SDS011;9318;48.644;9.456;2024-03-02T03:35:42;1.90;;;1.90;;
18383;SDS011;9318;48.644;9.456;2024-03-02T03:38:09;1.70;;;1.70;;
18383;SDS011;9318;48.644;9.456;2024-03-02T03:40:36;1.90;;;1.90;;
18383;SDS011;9318;48.644;9.456;2024-03-02T03:43:02;1.50;;;1.50;;
18383;SDS011;9318;48.644;9.456;2024-03-02T03:45:29;1.60;;;1.60;;
18383;SDS011;9318;48.644;9.456;2024-03-02T03:47:57;1.80;;;1.80;;
18383;SDS011;9318;48.644;9.456;2024-03-02T03:50:24;1.70;;;1.70;;
18383;SDS011;9318;48.644;9.456;2024-03-02T03:52:51;1.80;;;1.80;;
18383;SDS011;9318;48.644;9.456;2024-03-02T03:55:18;1.70;;;1.70;;
18383;SDS011;9318;48.644;9.456;2024-03-02T03:57:44;1.50;;;1.50;;
18383;SDS011;9318;48.644;9.456;2024-03-02T04:00:11;1.67;;;1.67;;
18383;SDS011;9318;48.644;9.456;2024-03-02T04:02:39;1.80;;;1.80;;
18383;SDS011;9318;48.644;9.456;2024-03-02T04:05:07;1.83;;;1.83;;
18383;SDS011;9318;48.644;9.456;2024-03-02T04:07:35;1.60;;;1.60;;
18383;SDS011;9318;48.644;9.456;2024-03-02T04:10:06;1.90;;;1.90;;
18383;SDS011;9318;48.644;9.456;2024-03-02T04:12:34;1.70;;;1.70;;
18383;SDS011;9318;48.644;9.456;2024-03-02T04:15:01;1.60;;;1.60;;
18383;SDS011;9318;48.644;9.456;2024-03-02T04:17:29;1.60;;;1.60;;
18383;SDS011;9318;48.644;9.456;2024-03-02T04:19:58;1.60;;;1.60;;
18383;SDS011;9318;48.644;9.456;2024-03-02T04:22:26;1.60;;;1.60;;
18383;SDS011;9318;48.644;9.456;2024-03-02T04:24:53;1.70;;;1.70;;
18383;SDS011;9318;48.644;9.456;2024-03-02T04:27:20;1.90;;;1.90;;
18383;SDS011;9318;48.644;9.456;2024-03-02T04:29:47;1.70;;;1.70;;
18383;SDS011;9318;48.644;9.456;2024-03-02T04:32:13;1.70;;;1.70;;
18383;SDS011;9318;48.644;9.456;2024-03-02T04:34:40;1.90;;;1.90;;
18383;SDS011;9318;48.644;9.456;2024-03-02T04:37:07;1.70;;;1.70;;
18383;SDS011;9318;48.644;9.456;2024-03-02T04:39:36;1.60;;;1.60;;
18383;SDS011;9318;48.644;9.456;2024-03-02T04:42:02;2.00;;;2.00;;
18383;SDS011;9318;48.644;9.456;2024-03-02T04:44:29;1.90;;;1.90;;
18383;SDS011;9318;48.644;9.456;2024-03-02T04:46:56;1.60;;;1.60;;
18383;SDS011;9318;48.644;9.456;2024-03-02T04:49:23;1.90;;;1.90;;
18383;SDS011;9318;48.644;9.456;2024-03-02T04:51:50;1.70;;;1.70;;
18383;SDS011;9318;48.644;9.456;2024-03-02T04:54:17;1.90;;;1.90;;
18383;SDS011;9318;48.644;9.456;2024-03-02T04:56:45;1.60;;;1.60;;
18383;SDS011;9318;48.644;9.456;2024-03-02T04:59:14;1.90;;;1.90;;
18383;SDS011;9318;48.644;9.456;2024-03-02T05:01:41;2.00;;;2.00;;
18383;SDS011;9318;48.644;9.456;2024-03-02T05:04:08;1.60;;;1.60;;
18383;SDS011;9318;48.644;9.456;2024-03-02T05:06:36;1.70;;;1.70;;
18383;SDS011;9318;48.644;9.456;2024-03-02T05:09:03;2.00;;;2.00;;
18383;SDS011;9318;48.644;9.456;2024-03-02T05:11:30;1.60;;;1.60;;
18383;SDS011;9318;48.644;9.456;2024-03-02T05:14:25;1.60;;;1.60;;
18383;SDS011;9318;48.644;9.456;2024-03-02T05:16:52;1.70;;;1.70;;
18383;SDS011;9318;48.644;9.456;2024-03-02T05:19:19;1.70;;;1.70;;
18383;SDS011;9318;48.644;9.456;2024-03-02T05:21:45;1.60;;;1.60;;
18383;SDS011;9318;48.644;9.456;2024-03-02T05:24:12;1.63;;;1.63;;
18383;SDS011;9318;48.644;9.456;2024-03-02T05:26:39;1.60;;;1.60;;
18383;SDS011;9318;48.644;9.456;2024-03-02T05:29:06;1.90;;;1.90;;
18383;SDS011;9318;48.644;9.456;2024-03-02T05:31:34;2.00;;;2.00;;
18383;SDS011;9318;48.644;9.456;2024-03-02T05:34:00;1.60;;;1.60;;
18383;SDS011;9318;48.644;9.456;2024-03-02T05:36:27;1.90;;;1.90;;
18383;SDS011;9318;48.644;9.456;2024-03-02T05:38:54;1.70;;;1.70;;
18383;SDS011;9318;48.644;9.456;2024-03-02T05:41:21;1.70;;;1.70;;
18383;SDS011;9318;48.644;9.456;2024-03-02T05:43:47;2.00;;;2.00;;
18383;SDS011;9318;48.644;9.456;2024-03-02T05:46:15;1.80;;;1.80;;
18383;SDS011;9318;48.644;9.456;2024-03-02T05:48:43;1.90;;;1.90;;
18383;SDS011;9318;48.644;9.456;2024-03-02T05:51:10;1.90;;;1.90;;
18383;SDS011;9318;48.644;9.456;2024-03-02T05:53:36;1.60;;;1.60;;
18383;SDS011;9318;48.644;9.456;2024-03-02T05:56:04;1.90;;;1.90;;
18383;SDS011;9318;48.644;9.456;2024-03-02T05:58:31;1.60;;;1.60;;
18383;SDS011;9318;48.644;9.456;2024-03-02T06:01:11;1.70;;;1.70;;
18383;SDS011;9318;48.644;9.456;2024-03-02T06:03:38;1.70;;;1.70;;
18383;SDS011;9318;48.644;9.456;2024-03-02T06:06:06;1.80;;;1.80;;
18383;SDS011;9318;48.644;9.456;2024-03-02T06:08:33;1.90;;;1.90;;
18383;SDS011;9318;48.644;9.456;2024-03-02T06:11:00;1.47;;;1.47;;
18383;SDS011;9318;48.644;9.456;2024-03-02T06:13:27;1.90;;;1.90;;
18383;SDS011;9318;48.644;9.456;2024-03-02T06:15:53;1.50;;;1.50;;
18383;SDS011;9318;48.644;9.456;2024-03-02T06:18:20;1.90;;;1.90;;
18383;SDS011;9318;48.644;9.456;2024-03-02T06:20:47;1.70;;;1.70;;
18383;SDS011;9318;48.644;9.456;2024-03-02T06:23:15;1.70;;;1.70;;
18383;SDS011;9318;48.644;9.456;2024-03-02T06:25:42;1.70;;;1.70;;
18383;SDS011;9318;48.644;9.456;2024-03-02T06:28:09;1.90;;;1.90;;
18383;SDS011;9318;48.644;9.456;2024-03-02T06:30:35;1.80;;;1.80;;
18383;SDS011;9318;48.644;9.456;2024-03-02T06:33:02;1.60;;;1.60;;
18383;SDS011;9318;48.644;9.456;2024-03-02T06:35:31;1.80;;;1.80;;
18383;SDS011;9318;48.644;9.456;2024-03-02T06:37:57;1.80;;;1.80;;
18383;SDS011;9318;48.644;9.456;2024-03-02T06:40:25;1.70;;;1.70;;
18383;SDS011;9318;48.644;9.456;2024-03-02T06:42:51;1.97;;;1.97;;
18383;SDS011;9318;48.644;9.456;2024-03-02T06:45:18;1.70;;;1.70;;
18383;SDS011;9318;48.644;9.456;2024-03-02T06:47:45;2.00;;;2.00;;
18383;SDS011;9318;48.644;9.456;2024-03-02T06:50:12;1.80;;;1.80;;
18383;SDS011;9318;48.644;9.456;2024-03-02T06:52:39;1.70;;;1.70;;
18383;SDS011;9318;48.644;9.456;2024-03-02T06:55:06;1.70;;;1.70;;
18383;SDS011;9318;48.644;9.456;2024-03-02T06:57:34;2.00;;;2.00;;
18383;SDS011;9318;48.644;9.456;2024-03-02T07:00:01;1.70;;;1.70;;
18383;SDS011;9318;48.644;9.456;2024-03-02T07:02:30;1.70;;;1.70;;
18383;SDS011;9318;48.644;9.456;2024-03-02T07:04:57;1.70;;;1.70;;
18383;SDS011;9318;48.644;9.456;2024-03-02T07:07:24;1.90;;;1.90;;
18383;SDS011;9318;48.644;9.456;2024-03-02T07:09:51;1.67;;;1.67;;
18383;SDS011;9318;48.644;9.456;2024-03-02T07:12:17;1.90;;;1.90;;
18383;SDS011;9318;48.644;9.456;2024-03-02T07:14:45;1.60;;;1.60;;
18383;SDS011;9318;48.644;9.456;2024-03-02T07:17:49;1.90;;;1.90;;
18383;SDS011;9318;48.644;9.456;2024-03-02T07:20:17;1.60;;;1.60;;
18383;SDS011;9318;48.644;9.456;2024-03-02T07:22:43;1.50;;;1.50;;
18383;SDS011;9318;48.644;9.456;2024-03-02T07:25:10;1.50;;;1.50;;
18383;SDS011;9318;48.644;9.456;2024-03-02T07:27:37;1.83;;;1.83;;
18383;SDS011;9318;48.644;9.456;2024-03-02T07:30:06;1.70;;;1.70;;
18383;SDS011;9318;48.644;9.456;2024-03-02T07:32:33;1.70;;;1.70;;
18383;SDS011;9318;48.644;9.456;2024-03-02T07:35:00;1.37;;;1.37;;
18383;SDS011;9318;48.644;9.456;2024-03-02T07:37:28;1.70;;;1.70;;
18383;SDS011;9318;48.644;9.456;2024-03-02T07:39:55;1.50;;;1.50;;
18383;SDS011;9318;48.644;9.456;2024-03-02T07:42:22;1.57;;;1.57;;
18383;SDS011;9318;48.644;9.456;2024-03-02T07:44:49;1.50;;;1.50;;
18383;SDS011;9318;48.644;9.456;2024-03-02T07:47:17;1.30;;;1.30;;
18383;SDS011;9318;48.644;9.456;2024-03-02T07:49:44;1.60;;;1.60;;
18383;SDS011;9318;48.644;9.456;2024-03-02T07:52:11;1.40;;;1.40;;
18383;SDS011;9318;48.644;9.456;2024-03-02T07:54:38;1.37;;;1.37;;
18383;SDS011;9318;48.644;9.456;2024-03-02T07:57:04;1.40;;;1.40;;
18383;SDS011;9318;48.644;9.456;2024-03-02T07:59:31;1.40;;;1.40;;
18383;SDS011;9318;48.644;9.456;2024-03-02T08:01:58;1.10;;;1.10;;
18383;SDS011;9318;48.644;9.456;2024-03-02T08:04:27;1.27;;;1.27;;
18383;SDS011;9318;48.644;9.456;2024-03-02T08:06:54;1.30;;;1.30;;
18383;SDS011;9318;48.644;9.456;2024-03-02T08:09:21;1.20;;;1.20;;
18383;SDS011;9318;48.644;9.456;2024-03-02T08:11:47;1.13;;;1.13;;
18383;SDS011;9318;48.644;9.456;2024-03-02T08:14:14;1.10;;;1.10;;
18383;SDS011;9318;48.644;9.456;2024-03-02T08:16:41;1.10;;;1.10;;
18383;SDS011;9318;48.644;9.456;2024-03-02T08:19:08;1.10;;;1.10;;
18383;SDS011;9318;48.644;9.456;2024-03-02T08:21:36;1.00;;;1.00;;
18383;SDS011;9318;48.644;9.456;2024-03-02T08:24:03;1.30;;;1.30;;
18383;SDS011;9318;48.644;9.456;2024-03-02T08:26:31;1.20;;;1.20;;
18383;SDS011;9318;48.644;9.456;2024-03-02T08:28:58;1.30;;;1.30;;
18383;SDS011;9318;48.644;9.456;2024-03-02T08:31:26;1.20;;;1.20;;
18383;SDS011;9318;48.644;9.456;2024-03-02T08:33:53;1.17;;;1.17;;
18383;SDS011;9318;48.644;9.456;2024-03-02T08:36:20;1.27;;;1.27;;
18383;SDS011;9318;48.644;9.456;2024-03-02T08:38:49;1.10;;;1.10;;
18383;SDS011;9318;48.644;9.456;2024-03-02T08:41:16;1.33;;;1.33;;
18383;SDS011;9318;48.644;9.456;2024-03-02T08:43:43;1.20;;;1.20;;
18383;SDS011;9318;48.644;9.456;2024-03-02T08:46:10;1.20;;;1.20;;
18383;SDS011;9318;48.644;9.456;2024-03-02T08:48:37;1.20;;;1.20;;
18383;SDS011;9318;48.644;9.456;2024-03-02T08:51:04;1.30;;;1.30;;
18383;SDS011;9318;48.644;9.456;2024-03-02T08:53:32;1.30;;;1.30;;
18383;SDS011;9318;48.644;9.456;2024-03-02T08:56:01;1.20;;;1.20;;
18383;SDS011;9318;48.644;9.456;2024-03-02T08:58:30;1.37;;;1.37;;
18383;SDS011;9318;48.644;9.456;2024-03-02T09:00:57;1.20;;;1.20;;
18383;SDS011;9318;48.644;9.456;2024-03-02T09:03:24;1.20;;;1.20;;
18383;SDS011;9318;48.644;9.456;2024-03-02T09:05:51;1.20;;;1.20;;
18383;SDS011;9318;48.644;9.456;2024-03-02T09:08:17;1.20;;;1.20;;
18383;SDS011;9318;48.644;9.456;2024-03-02T09:10:44;1.10;;;1.10;;
18383;SDS011;9318;48.644;9.456;2024-03-02T09:13:12;1.30;;;1.30;;
18383;SDS011;9318;48.644;9.456;2024-03-02T09:15:39;1.10;;;1.10;;
18383;SDS011;9318;48.644;9.456;2024-03-02T09:18:06;1.13;;;1.13;;
18383;SDS011;9318;48.644;9.456;2024-03-02T09:20:33;1.00;;;1.00;;
18383;SDS011;9318;48.644;9.456;2024-03-02T09:23:00;1.10;;;1.10;;
18383;SDS011;9318;48.644;9.456;2024-03-02T09:25:26;1.00;;;1.00;;
18383;SDS011;9318;48.644;9.456;2024-03-02T09:27:53;0.90;;;0.90;;
18383;SDS011;9318;48.644;9.456;2024-03-02T09:30:21;0.90;;;0.90;;
18383;SDS011;9318;48.644;9.456;2024-03-02T09:32:48;0.75;;;0.75;;
18383;SDS011;9318;48.644;9.456;2024-03-02T09:35:15;0.60;;;0.60;;
18383;SDS011;9318;48.644;9.456;2024-03-02T09:37:42;0.70;;;0.70;;
18383;SDS011;9318;48.644;9.456;2024-03-02T09:40:09;0.80;;;0.80;;
18383;SDS011;9318;48.644;9.456;2024-03-02T09:42:37;0.65;;;0.65;;
18383;SDS011;9318;48.644;9.456;2024-03-02T09:45:04;0.70;;;0.70;;
18383;SDS011;9318;48.644;9.456;2024-03-02T09:47:33;0.70;;;0.70;;
18383;SDS011;9318;48.644;9.456;2024-03-02T09:50:00;0.60;;;0.60;;
18383;SDS011;9318;48.644;9.456;2024-03-02T09:52:27;0.60;;;0.60;;
18383;SDS011;9318;48.644;9.456;2024-03-02T09:54:54;0.52;;;0.52;;
18383;SDS011;9318;48.644;9.456;2024-03-02T09:57:20;0.50;;;0.50;;
18383;SDS011;9318;48.644;9.456;2024-03-02T09:59:47;0.50;;;0.50;;
18383;SDS011;9318;48.644;9.456;2024-03-02T10:02:14;0.50;;;0.50;;
18383;SDS011;9318;48.644;9.456;2024-03-02T10:04:42;0.45;;;0.45;;
18383;SDS011;9318;48.644;9.456;2024-03-02T10:07:10;0.38;;;0.38;;
18383;SDS011;9318;48.644;9.456;2024-03-02T10:09:38;0.40;;;0.40;;
18383;SDS011;9318;48.644;9.456;2024-03-02T10:12:06;0.50;;;0.50;;
18383;SDS011;9318;48.644;9.456;2024-03-02T10:14:33;0.30;;;0.30;;
18383;SDS011;9318;48.644;9.456;2024-03-02T10:17:04;0.50;;;0.50;;
18383;SDS011;9318;48.644;9.456;2024-03-02T10:19:32;0.50;;;0.50;;
18383;SDS011;9318;48.644;9.456;2024-03-02T10:22:01;0.50;;;0.50;;
18383;SDS011;9318;48.644;9.456;2024-03-02T10:24:34;0.40;;;0.40;;
18383;SDS011;9318;48.644;9.456;2024-03-02T10:27:06;0.50;;;0.50;;
18383;SDS011;9318;48.644;9.456;2024-03-02T10:29:36;0.40;;;0.40;;
18383;SDS011;9318;48.644;9.456;2024-03-02T10:32:04;0.50;;;0.50;;
18383;SDS011;9318;48.644;9.456;2024-03-02T10:34:32;0.43;;;0.43;;
18383;SDS011;9318;48.644;9.456;2024-03-02T10:36:59;0.50;;;0.50;;
18383;SDS011;9318;48.644;9.456;2024-03-02T10:39:27;0.40;;;0.40;;
18383;SDS011;9318;48.644;9.456;2024-03-02T10:41:56;0.50;;;0.50;;
18383;SDS011;9318;48.644;9.456;2024-03-02T10:44:24;0.47;;;0.47;;
18383;SDS011;9318;48.644;9.456;2024-03-02T10:46:52;0.52;;;0.52;;
18383;SDS011;9318;48.644;9.456;2024-03-02T10:49:20;0.50;;;0.50;;
18383;SDS011;9318;48.644;9.456;2024-03-02T10:51:49;0.50;;;0.50;;
18383;SDS011;9318;48.644;9.456;2024-03-02T10:54:17;0.55;;;0.55;;
18383;SDS011;9318;48.644;9.456;2024-03-02T10:56:50;0.60;;;0.60;;
18383;SDS011;9318;48.644;9.456;2024-03-02T10:59:22;0.70;;;0.70;;
18383;SDS011;9318;48.644;9.456;2024-03-02T11:01:55;0.77;;;0.77;;
18383;SDS011;9318;48.644;9.456;2024-03-02T11:04:24;0.60;;;0.60;;
18383;SDS011;9318;48.644;9.456;2024-03-02T11:06:52;0.50;;;0.50;;
18383;SDS011;9318;48.644;9.456;2024-03-02T11:09:27;0.73;;;0.73;;
18383;SDS011;9318;48.644;9.456;2024-03-02T11:11:56;0.70;;;0.70;;
18383;SDS011;9318;48.644;9.456;2024-03-02T11:14:27;0.80;;;0.80;;
18383;SDS011;9318;48.644;9.456;2024-03-02T11:16:56;0.80;;;0.80;;
18383;SDS011;9318;48.644;9.456;2024-03-02T11:19:23;0.80;;;0.80;;
18383;SDS011;9318;48.644;9.456;2024-03-02T11:21:51;0.82;;;0.82;;
18383;SDS011;9318;48.644;9.456;2024-03-02T11:24:29;0.75;;;0.75;;
18383;SDS011;9318;48.644;9.456;2024-03-02T11:27:00;0.50;;;0.50;;
18383;SDS011;9318;48.644;9.456;2024-03-02T11:29:43;0.70;;;0.70;;
18383;SDS011;9318;48.644;9.456;2024-03-02T11:32:13;0.88;;;0.88;;
18383;SDS011;9318;48.644;9.456;2024-03-02T11:34:44;1.00;;;1.00;;
18383;SDS011;9318;48.644;9.456;2024-03-02T11:37:13;0.90;;;0.90;;
18383;SDS011;9318;48.644;9.456;2024-03-02T11:39:42;0.90;;;0.90;;
18383;SDS011;9318;48.644;9.456;2024-03-02T11:42:11;0.80;;;0.80;;
18383;SDS011;9318;48.644;9.456;2024-03-02T11:44:42;1.17;;;1.17;;
18383;SDS011;9318;48.644;9.456;2024-03-02T11:47:11;0.70;;;0.70;;
18383;SDS011;9318;48.644;9.456;2024-03-02T11:49:43;0.90;;;0.90;;
18383;SDS011;9318;48.644;9.456;2024-03-02T11:52:11;0.90;;;0.90;;
18383;SDS011;9318;48.644;9.456;2024-03-02T11:54:42;0.80;;;0.80;;
18383;SDS011;9318;48.644;9.456;2024-03-02T11:57:12;0.90;;;0.90;;
18383;SDS011;9318;48.644;9.456;2024-03-02T11:59:40;0.77;;;0.77;;
18383;SDS011;9318;48.644;9.456;2024-03-02T12:02:12;0.80;;;0.80;;
18383;SDS011;9318;48.644;9.456;2024-03-02T12:04:41;0.90;;;0.90;;
18383;SDS011;9318;48.644;9.456;2024-03-02T12:07:09;0.88;;;0.88;;
18383;SDS011;9318;48.644;9.456;2024-03-02T12:09:37;0.85;;;0.85;;
18383;SDS011;9318;48.644;9.456;2024-03-02T12:12:06;0.80;;;0.80;;
18383;SDS011;9318;48.644;9.456;2024-03-02T12:14:34;0.70;;;0.70;;
18383;SDS011;9318;48.644;9.456;2024-03-02T12:17:02;0.90;;;0.90;;
18383;SDS011;9318;48.644;9.456;2024-03-02T12:19:29;0.95;;;0.95;;
18383;SDS011;9318;48.644;9.456;2024-03-02T12:21:57;0.80;;;0.80;;
18383;SDS011;9318;48.644;9.456;2024-03-02T12:24:26;0.80;;;0.80;;
18383;SDS011;9318;48.644;9.456;2024-03-02T12:26:54;0.90;;;0.90;;
18383;SDS011;9318;48.644;9.456;2024-03-02T12:29:22;0.80;;;0.80;;
18383;SDS011;9318;48.644;9.456;2024-03-02T12:31:50;0.80;;;0.80;;
18383;SDS011;9318;48.644;9.456;2024-03-02T12:34:18;0.80;;;0.80;;
18383;SDS011;9318;48.644;9.456;2024-03-02T12:36:45;0.90;;;0.90;;
18383;SDS011;9318;48.644;9.456;2024-03-02T12:39:14;0.90;;;0.90;;
18383;SDS011;9318;48.644;9.456;2024-03-02T12:41:41;1.00;;;1.00;;
18383;SDS011;9318;48.644;9.456;2024-03-02T12:44:08;0.90;;;0.90;;
18383;SDS011;9318;48.644;9.456;2024-03-02T12:46:36;0.88;;;0.88;;
18383;SDS011;9318;48.644;9.456;2024-03-02T12:49:08;0.90;;;0.90;;
18383;SDS011;9318;48.644;9.456;2024-03-02T12:51:37;0.90;;;0.90;;
18383;SDS011;9318;48.644;9.456;2024-03-02T12:54:05;0.90;;;0.90;;
18383;SDS011;9318;48.644;9.456;2024-03-02T12:56:32;0.80;;;0.80;;
18383;SDS011;9318;48.644;9.456;2024-03-02T12:58:59;0.90;;;0.90;;
18383;SDS011;9318;48.644;9.456;2024-03-02T13:01:26;0.90;;;0.90;;
18383;SDS011;9318;48.644;9.456;2024-03-02T13:03:54;0.90;;;0.90;;
18383;SDS011;9318;48.644;9.456;2024-03-02T13:06:22;0.80;;;0.80;;
18383;SDS011;9318;48.644;9.456;2024-03-02T13:08:49;0.90;;;0.90;;
18383;SDS011;9318;48.644;9.456;2024-03-02T13:11:16;0.90;;;0.90;;
18383;SDS011;9318;48.644;9.456;2024-03-02T13:13:43;0.93;;;0.93;;
18383;SDS011;9318;48.644;9.456;2024-03-02T13:16:10;0.98;;;0.98;;
18383;SDS011;9318;48.644;9.456;2024-03-02T13:18:38;1.00;;;1.00;;
18383;SDS011;9318;48.644;9.456;2024-03-02T13:21:08;0.90;;;0.90;;
18383;SDS011;9318;48.644;9.456;2024-03-02T13:23:35;0.80;;;0.80;;
18383;SDS011;9318;48.644;9.456;2024-03-02T13:26:01;1.00;;;1.00;;
18383;SDS011;9318;48.644;9.456;2024-03-02T13:28:29;0.80;;;0.80;;
18383;SDS011;9318;48.644;9.456;2024-03-02T13:30:56;0.80;;;0.80;;
18383;SDS011;9318;48.644;9.456;2024-03-02T13:33:23;0.70;;;0.70;;
18383;SDS011;9318;48.644;9.456;2024-03-02T13:35:50;0.93;;;0.93;;
18383;SDS011;9318;48.644;9.456;2024-03-02T13:38:18;0.85;;;0.85;;
18383;SDS011;9318;48.644;9.456;2024-03-02T13:40:46;0.90;;;0.90;;
18383;SDS011;9318;48.644;9.456;2024-03-02T13:43:16;0.90;;;0.90;;
18383;SDS011;9318;48.644;9.456;2024-03-02T13:45:43;1.00;;;1.00;;
18383;SDS011;9318;48.644;9.456;2024-03-02T13:48:10;0.98;;;0.98;;
18383;SDS011;9318;48.644;9.456;2024-03-02T13:50:37;0.82;;;0.82;;
18383;SDS011;9318;48.644;9.456;2024-03-02T13:53:03;1.00;;;1.00;;
18383;SDS011;9318;48.644;9.456;2024-03-02T13:55:33;0.98;;;0.98;;
18383;SDS011;9318;48.644;9.456;2024-03-02T13:58:00;0.80;;;0.80;;
18383;SDS011;9318;48.644;9.456;2024-03-02T14:00:27;0.90;;;0.90;;
18383;SDS011;9318;48.644;9.456;2024-03-02T14:02:54;0.77;;;0.77;;
18383;SDS011;9318;48.644;9.456;2024-03-02T14:05:21;0.93;;;0.93;;
18383;SDS011;9318;48.644;9.456;2024-03-02T14:07:48;0.93;;;0.93;;
18383;SDS011;9318;48.644;9.456;2024-03-02T14:10:14;0.80;;;0.80;;
18383;SDS011;9318;48.644;9.456;2024-03-02T14:12:44;0.85;;;0.85;;
18383;SDS011;9318;48.644;9.456;2024-03-02T14:15:10;0.90;;;0.90;;
18383;SDS011;9318;48.644;9.456;2024-03-02T14:17:38;0.90;;;0.90;;
18383;SDS011;9318;48.644;9.456;2024-03-02T14:20:05;1.00;;;1.00;;
18383;SDS011;9318;48.644;9.456;2024-03-02T14:22:35;1.00;;;1.00;;
18383;SDS011;9318;48.644;9.456;2024-03-02T14:25:02;1.00;;;1.00;;
18383;SDS011;9318;48.644;9.456;2024-03-02T14:27:29;0.90;;;0.90;;
18383;SDS011;9318;48.644;9.456;2024-03-02T14:29:58;0.98;;;0.98;;
18383;SDS011;9318;48.644;9.456;2024-03-02T14:33:55;0.70;;;0.70;;
18383;SDS011;9318;48.644;9.456;2024-03-02T14:35:36;0.80;;;0.80;;
18383;SDS011;9318;48.644;9.456;2024-03-02T14:38:03;0.73;;;0.73;;
18383;SDS011;9318;48.644;9.456;2024-03-02T14:40:31;0.90;;;0.90;;
18383;SDS011;9318;48.644;9.456;2024-03-02T14:42:58;0.85;;;0.85;;
18383;SDS011;9318;48.644;9.456;2024-03-02T14:45:26;0.80;;;0.80;;
18383;SDS011;9318;48.644;9.456;2024-03-02T14:47:53;0.80;;;0.80;;
18383;SDS011;9318;48.644;9.456;2024-03-02T14:50:19;0.90;;;0.90;;
18383;SDS011;9318;48.644;9.456;2024-03-02T14:52:46;0.90;;;0.90;;
18383;SDS011;9318;48.644;9.456;2024-03-02T14:55:13;0.90;;;0.90;;
18383;SDS011;9318;48.644;9.456;2024-03-02T14:57:40;1.00;;;1.00;;
18383;SDS011;9318;48.644;9.456;2024-03-02T15:00:07;0.90;;;0.90;;
18383;SDS011;9318;48.644;9.456;2024-03-02T15:02:37;0.90;;;0.90;;
18383;SDS011;9318;48.644;9.456;2024-03-02T15:05:04;1.00;;;1.00;;
18383;SDS011;9318;48.644;9.456;2024-03-02T15:07:32;0.90;;;0.90;;